Inicio METAR Ruta Wind Satelite

Informe Meteorológico

Fecha: 2020/07/02 01:07:43 Local
2020.07.02 06:07 UTC


Estado: VIGENTE
Operación:MVFR
Cali / Alfonso Bonilla Aragon, Colombia (SKCL) 03-33N 076-23W 969M
2020.07.02 0600 UTC
Wind: Variable at 2 MPH (2 KT):0
Visibility: 3 mile(s):0
Sky conditions: mostly cloudy
Weather: light rain
Temperature: 69 F (21 C)
Dew Point: 68 F (20 C)
Relative Humidity: 94%
Pressure (altimeter): 30.02 in. Hg (1016 hPa)
ob: SKCL 020600Z VRB02KT 6000 -RA SCT030 BKN060 21/20 A3002 TEMPO FM0615 RA
cycle: 6

SKCL 020500Z 11003KT 080V150 8000 SCT030 BKN070 21/20 A3002 NOSIG RMK HZ
SKCL 020400Z 20006KT 9999 SCT030 SCT070 21/20 A3001 NOSIG
SKCL 020300Z 21004KT 130V260 9999 SCT030 BKN100 21/19 A3000 NOSIG
SKCL 020200Z 00000KT 9999 SCT030 BKN100 22/18 A2999 NOSIG
SKCL 020100Z 03003KT 330V140 9999 SCT030 SCT070 23/18 A2997 NOSIG

2020/07/02 06:40
TAF SKCL 020430Z 0206/0306 VRB02KT 9999 FEW030 SCT120
TEMPO 0209/0212 6000 DZ SCT020 BKN070
BECMG 0215/0217 32014KT PROB40
TEMPO 0220/0223 TS SCT020CB
BECMG 0301/0303 VRB02KT TX31/0219Z TN19/0210Z